Cerquilho, Brazil
Current Conditions -  °F | °C
As of 9:00 AM on Monday 22 Dec 2014 (Local Time) from SBKP Reporting Station
Overcast Overcast  
Wind Chill: 73°   Ceiling: 1200
Heat Index: 73°   Visibility: 6mi
Dew Point: 70°   Wind: 10mph
Humidity: 88%   Direction: 10°N
Pressure: 29.97"   Gusts: NA
Location:  23.15°S, 47.75°W
Report Text: SBKP 221100Z 01009KT 9999 BKN012 OVC090 23/21 Q1015
Loading
Personal Weather Stations






























Interactive Weather Map New forecast layout! Learn more

10-Day Weather Forecast

Advertisements
Track Severe Weather on mobile